createdAt,value
2016-12-26T00:00:01.295Z,11.95
2016-12-26T00:00:27.419Z,11.88
2016-12-26T00:00:53.531Z,12.02
2016-12-26T00:01:19.654Z,11.94
2016-12-26T00:01:45.769Z,12
2016-12-26T00:02:11.872Z,11.94
2016-12-26T00:02:38.001Z,11.95
2016-12-26T00:03:04.118Z,12
2016-12-26T00:03:30.222Z,11.91
2016-12-26T00:03:56.373Z,11.81
2016-12-26T00:04:22.497Z,11.9
2016-12-26T00:04:48.606Z,11.88
2016-12-26T00:05:14.723Z,11.95
2016-12-26T00:05:40.849Z,11.95
2016-12-26T00:06:06.949Z,11.94
2016-12-26T00:06:33.068Z,11.95
2016-12-26T00:06:59.178Z,11.95
2016-12-26T00:07:25.300Z,11.88
2016-12-26T00:07:51.424Z,11.9
2016-12-26T00:08:17.529Z,11.95
2016-12-26T00:08:43.640Z,11.9
2016-12-26T00:09:09.762Z,11.97
2016-12-26T00:09:35.866Z,11.91
2016-12-26T00:10:01.985Z,12
2016-12-26T00:10:28.139Z,11.97
2016-12-26T00:10:54.248Z,12.02
2016-12-26T00:11:20.353Z,11.91
2016-12-26T00:11:46.475Z,11.88
2016-12-26T00:12:12.594Z,11.81
2016-12-26T00:12:38.712Z,11.87
2016-12-26T00:13:04.819Z,11.87
2016-12-26T00:13:30.932Z,11.94
2016-12-26T00:13:57.056Z,11.91
2016-12-26T00:14:23.167Z,11.94
2016-12-26T00:14:49.275Z,11.99
2016-12-26T00:15:15.396Z,12
2016-12-26T00:15:41.507Z,11.88
2016-12-26T00:16:07.616Z,11.81
2016-12-26T00:16:33.736Z,11.86
2016-12-26T00:16:59.854Z,11.94
2016-12-26T00:17:25.960Z,11.88
2016-12-26T00:17:52.081Z,11.94
2016-12-26T00:18:18.198Z,11.95
2016-12-26T00:18:44.303Z,11.95
2016-12-26T00:19:10.417Z,12.03
2016-12-26T00:19:36.542Z,11.97
2016-12-26T00:20:02.648Z,11.94
2016-12-26T00:20:28.761Z,11.9
2016-12-26T00:20:54.883Z,12.02
2016-12-26T00:21:20.992Z,11.94
2016-12-26T00:21:47.099Z,11.94
2016-12-26T00:22:13.232Z,11.94
2016-12-26T00:22:39.347Z,11.95
2016-12-26T00:23:05.465Z,11.88
2016-12-26T00:23:31.572Z,11.94
2016-12-26T00:23:57.690Z,11.87
2016-12-26T00:24:23.806Z,11.97
2016-12-26T00:24:49.915Z,11.91
2016-12-26T00:25:16.018Z,11.9
2016-12-26T00:25:42.146Z,11.87
2016-12-26T00:26:08.258Z,11.94
2016-12-26T00:26:34.399Z,11.88
2016-12-26T00:27:00.519Z,11.88
2016-12-26T00:27:26.635Z,11.95
2016-12-26T00:27:52.740Z,11.88
2016-12-26T00:28:18.860Z,12
2016-12-26T00:28:44.966Z,11.97
2016-12-26T00:29:11.087Z,12
2016-12-26T00:29:37.202Z,12
2016-12-26T00:30:03.304Z,11.99
2016-12-26T00:30:29.434Z,11.99
2016-12-26T00:30:55.552Z,11.99
2016-12-26T00:31:21.662Z,12
2016-12-26T00:31:47.776Z,11.97
2016-12-26T00:32:13.902Z,11.94
2016-12-26T00:32:40.009Z,11.94
2016-12-26T00:33:06.125Z,12.07
2016-12-26T00:33:32.249Z,12.12
2016-12-26T00:33:58.352Z,11.95
2016-12-26T00:34:24.469Z,12.1
2016-12-26T00:34:50.581Z,11.99
2016-12-26T00:35:16.699Z,11.99
2016-12-26T00:35:42.827Z,11.95
2016-12-26T00:36:08.926Z,11.91
2016-12-26T00:36:35.043Z,11.97
2016-12-26T00:37:01.170Z,11.95
2016-12-26T00:37:27.276Z,11.95
2016-12-26T00:37:53.387Z,12
2016-12-26T00:38:19.513Z,11.91
2016-12-26T00:38:45.628Z,12.07
2016-12-26T00:39:11.733Z,12.12
2016-12-26T00:39:37.863Z,12.09
2016-12-26T00:40:03.977Z,12.04
2016-12-26T00:40:30.115Z,12.1
2016-12-26T00:40:56.236Z,12.03
2016-12-26T00:41:22.355Z,12.04
2016-12-26T00:41:48.461Z,12.06
2016-12-26T00:42:14.581Z,12.06
2016-12-26T00:42:40.706Z,12.13
2016-12-26T00:43:06.808Z,12.06
2016-12-26T00:43:32.921Z,12.12
2016-12-26T00:43:59.044Z,12.13
2016-12-26T00:44:25.152Z,12.07
2016-12-26T00:44:51.262Z,12.15
2016-12-26T00:45:17.377Z,12.15
2016-12-26T00:45:43.501Z,12.1
2016-12-26T00:46:09.618Z,12.06
2016-12-26T00:46:35.729Z,11.95
2016-12-26T00:47:01.841Z,12
2016-12-26T00:47:27.967Z,12.03
2016-12-26T00:47:54.072Z,12
2016-12-26T00:48:20.188Z,11.97
2016-12-26T00:48:46.309Z,11.88
2016-12-26T00:49:12.415Z,11.91
2016-12-26T00:49:38.525Z,11.9
2016-12-26T00:50:04.651Z,11.94
2016-12-26T00:50:30.768Z,11.99
2016-12-26T00:50:56.886Z,11.94
2016-12-26T00:51:22.996Z,12.04
2016-12-26T00:51:49.112Z,12.02
2016-12-26T00:52:15.238Z,12.03
2016-12-26T00:52:41.346Z,11.95
2016-12-26T00:53:07.451Z,11.88
2016-12-26T00:53:33.582Z,11.83
2016-12-26T00:53:59.695Z,11.84
2016-12-26T00:54:25.804Z,11.86
2016-12-26T00:54:51.931Z,11.84
2016-12-26T00:55:18.056Z,11.95
2016-12-26T00:55:44.157Z,12
2016-12-26T00:56:10.276Z,11.97
2016-12-26T00:56:36.382Z,11.88
2016-12-26T00:57:02.503Z,11.9
2016-12-26T00:57:28.619Z,11.88
2016-12-26T00:57:54.722Z,11.9
2016-12-26T00:58:20.848Z,11.91
2016-12-26T00:58:46.967Z,11.95
2016-12-26T00:59:13.067Z,11.95
2016-12-26T00:59:39.186Z,11.97
2016-12-26T01:00:05.305Z,12.03
2016-12-26T01:00:31.408Z,11.91
2016-12-26T01:00:57.528Z,11.95
2016-12-26T01:01:23.650Z,11.97
2016-12-26T01:01:49.760Z,11.95
2016-12-26T01:02:15.881Z,11.91
2016-12-26T01:02:41.993Z,11.99
2016-12-26T01:03:08.110Z,11.94
2016-12-26T01:03:34.234Z,12
2016-12-26T01:04:00.340Z,11.81
2016-12-26T01:04:26.450Z,11.9
2016-12-26T01:04:52.578Z,11.91
2016-12-26T01:05:18.683Z,11.88
2016-12-26T01:05:44.802Z,11.97
2016-12-26T01:06:10.923Z,11.97
2016-12-26T01:06:37.034Z,12.03
2016-12-26T01:07:03.145Z,11.95
2016-12-26T01:07:29.262Z,12.03
2016-12-26T01:07:55.373Z,11.99
2016-12-26T01:08:21.494Z,11.97
2016-12-26T01:08:47.599Z,11.9
2016-12-26T01:09:13.714Z,11.99
2016-12-26T01:09:39.834Z,11.99
2016-12-26T01:10:05.947Z,11.97
2016-12-26T01:10:32.051Z,11.97
2016-12-26T01:10:58.201Z,11.88
2016-12-26T01:11:24.319Z,11.97
2016-12-26T01:11:50.425Z,11.91
2016-12-26T01:12:16.545Z,11.87
2016-12-26T01:12:42.658Z,11.87
2016-12-26T01:13:08.784Z,11.86
2016-12-26T01:13:34.892Z,11.88
2016-12-26T01:14:01.002Z,11.87
2016-12-26T01:14:27.132Z,11.9
2016-12-26T01:14:53.245Z,11.9
2016-12-26T01:15:19.352Z,11.84
2016-12-26T01:15:45.475Z,11.88
2016-12-26T01:16:11.592Z,11.88
2016-12-26T01:16:37.695Z,11.86
2016-12-26T01:17:03.821Z,11.86
2016-12-26T01:17:29.967Z,11.87
2016-12-26T01:17:56.075Z,11.84
2016-12-26T01:18:22.188Z,11.8
2016-12-26T01:18:48.296Z,11.83
2016-12-26T01:19:14.416Z,11.78
2016-12-26T01:19:40.534Z,11.75
2016-12-26T01:20:06.644Z,11.78
2016-12-26T01:20:32.764Z,11.8
2016-12-26T01:20:58.885Z,11.84
2016-12-26T01:21:24.988Z,11.81
2016-12-26T01:21:51.107Z,11.84
2016-12-26T01:22:17.233Z,11.84
2016-12-26T01:22:43.338Z,11.8
2016-12-26T01:23:09.455Z,11.81
2016-12-26T01:23:35.571Z,11.77
2016-12-26T01:24:01.683Z,11.8
2016-12-26T01:24:27.790Z,11.75
2016-12-26T01:24:53.918Z,11.77
2016-12-26T01:25:20.029Z,11.81
2016-12-26T01:25:46.140Z,11.84
2016-12-26T01:26:12.260Z,11.78
2016-12-26T01:26:38.377Z,11.87
2016-12-26T01:27:04.483Z,11.73
2016-12-26T01:27:30.601Z,11.75
2016-12-26T01:27:56.730Z,11.81
2016-12-26T01:28:22.835Z,11.88
2016-12-26T01:28:48.952Z,11.88
2016-12-26T01:29:15.070Z,11.94
2016-12-26T01:29:41.178Z,11.88
2016-12-26T01:30:07.295Z,11.95
2016-12-26T01:30:33.399Z,11.86
2016-12-26T01:30:59.513Z,11.88
2016-12-26T01:31:25.635Z,11.9
2016-12-26T01:31:51.741Z,11.9
2016-12-26T01:32:17.859Z,11.88
2016-12-26T01:32:43.985Z,11.91
2016-12-26T01:33:10.092Z,12
2016-12-26T01:33:36.199Z,11.95
2016-12-26T01:34:02.330Z,12.06
2016-12-26T01:34:28.468Z,11.97
2016-12-26T01:34:54.579Z,12.04
2016-12-26T01:35:20.697Z,12.02
2016-12-26T01:35:46.811Z,11.87
2016-12-26T01:36:12.939Z,11.86
2016-12-26T01:36:39.045Z,11.81
2016-12-26T01:37:05.155Z,11.83
2016-12-26T01:37:31.274Z,11.86
2016-12-26T01:37:57.388Z,11.9
2016-12-26T01:38:23.492Z,11.88
2016-12-26T01:38:49.622Z,11.99
2016-12-26T01:39:15.734Z,12.03
2016-12-26T01:39:41.843Z,11.95
2016-12-26T01:40:07.961Z,11.95
2016-12-26T01:40:34.076Z,11.95
2016-12-26T01:41:00.203Z,12.02
2016-12-26T01:41:26.343Z,12.07
2016-12-26T01:41:52.446Z,12.06
2016-12-26T01:42:18.569Z,11.97
2016-12-26T01:42:44.686Z,11.95
2016-12-26T01:43:10.791Z,12.02
2016-12-26T01:43:36.913Z,11.9
2016-12-26T01:44:03.031Z,11.88
2016-12-26T01:44:29.134Z,12
2016-12-26T01:44:55.255Z,11.95
2016-12-26T01:45:21.376Z,11.91
2016-12-26T01:45:47.484Z,11.8
2016-12-26T01:46:13.600Z,11.86
2016-12-26T01:46:39.709Z,11.91
2016-12-26T01:47:05.835Z,11.88
2016-12-26T01:47:31.958Z,11.95
2016-12-26T01:47:58.058Z,11.94
2016-12-26T01:48:24.182Z,11.99
2016-12-26T01:48:50.299Z,11.94
2016-12-26T01:49:16.406Z,11.94
2016-12-26T01:49:42.523Z,11.91
2016-12-26T01:50:08.648Z,11.91
2016-12-26T01:50:34.751Z,11.95
2016-12-26T01:51:00.861Z,11.9
2016-12-26T01:51:26.979Z,11.91
2016-12-26T01:51:53.087Z,11.88
2016-12-26T01:52:19.214Z,11.9
2016-12-26T01:52:45.311Z,11.99
2016-12-26T01:53:11.427Z,11.95
2016-12-26T01:53:37.549Z,11.91
2016-12-26T01:54:03.657Z,11.91
2016-12-26T01:54:29.773Z,11.91
2016-12-26T01:54:55.893Z,11.94
2016-12-26T01:55:22.002Z,11.84
2016-12-26T01:55:48.113Z,11.91
2016-12-26T01:56:14.233Z,11.94
2016-12-26T01:56:40.349Z,11.95
2016-12-26T01:57:06.457Z,11.94
2016-12-26T01:57:32.583Z,11.88
2016-12-26T01:57:58.692Z,11.83
2016-12-26T01:58:24.820Z,11.91
2016-12-26T01:58:50.927Z,11.9
2016-12-26T01:59:17.036Z,12
2016-12-26T01:59:43.191Z,11.9
2016-12-26T02:00:09.307Z,12.02
2016-12-26T02:00:35.413Z,12.06
2016-12-26T02:01:01.531Z,11.99
2016-12-26T02:01:27.647Z,11.95
2016-12-26T02:01:53.757Z,11.94
2016-12-26T02:02:19.875Z,12.12
2016-12-26T02:02:45.997Z,12.1
2016-12-26T02:03:12.112Z,12.09
2016-12-26T02:03:38.222Z,12.1
2016-12-26T02:04:04.322Z,12.04
2016-12-26T02:04:30.449Z,12.09
2016-12-26T02:04:56.563Z,11.9
2016-12-26T02:05:22.677Z,12.07
2016-12-26T02:05:48.792Z,11.91
2016-12-26T02:06:14.912Z,12.04
2016-12-26T02:06:41.024Z,12.09
2016-12-26T02:07:07.137Z,11.94
2016-12-26T02:07:33.257Z,11.99
2016-12-26T02:07:59.369Z,11.95
2016-12-26T02:08:25.488Z,12.06
2016-12-26T02:08:51.608Z,12.1
2016-12-26T02:09:17.721Z,12.03
2016-12-26T02:09:43.820Z,11.99
2016-12-26T02:10:09.952Z,11.9
2016-12-26T02:10:36.062Z,11.94
2016-12-26T02:11:02.173Z,11.83
2016-12-26T02:11:28.293Z,11.86
2016-12-26T02:11:54.415Z,11.86
2016-12-26T02:12:20.515Z,11.84
2016-12-26T02:12:46.636Z,11.91
2016-12-26T02:13:12.763Z,11.91
2016-12-26T02:13:38.860Z,11.94
2016-12-26T02:14:04.982Z,11.97
2016-12-26T02:14:31.092Z,11.95
2016-12-26T02:14:57.218Z,12.03
2016-12-26T02:15:23.336Z,11.94
2016-12-26T02:15:49.442Z,12.02
2016-12-26T02:16:15.565Z,11.88
2016-12-26T02:16:41.681Z,11.95
2016-12-26T02:17:07.787Z,11.94
2016-12-26T02:17:33.903Z,11.95
2016-12-26T02:18:00.022Z,11.9
2016-12-26T02:18:26.129Z,11.94
2016-12-26T02:18:52.239Z,11.9
2016-12-26T02:19:18.366Z,11.97
2016-12-26T02:19:44.476Z,12
2016-12-26T02:20:10.601Z,11.95
2016-12-26T02:20:36.699Z,11.94
2016-12-26T02:21:02.818Z,11.95
2016-12-26T02:21:28.938Z,11.95
2016-12-26T02:21:55.047Z,11.99
2016-12-26T02:22:21.162Z,11.99
2016-12-26T02:22:47.487Z,11.97
2016-12-26T02:23:13.601Z,12
2016-12-26T02:23:39.706Z,11.99
2016-12-26T02:24:05.842Z,12.02
2016-12-26T02:24:31.958Z,11.99
2016-12-26T02:24:58.059Z,11.88
2016-12-26T02:25:24.185Z,11.94
2016-12-26T02:25:50.294Z,12.02
2016-12-26T02:26:16.421Z,11.9
2016-12-26T02:26:42.527Z,11.99
2016-12-26T02:27:08.637Z,11.86
2016-12-26T02:27:34.758Z,11.9
2016-12-26T02:28:00.874Z,11.95
2016-12-26T02:28:26.974Z,11.94
2016-12-26T02:28:53.096Z,11.91
2016-12-26T02:29:19.212Z,11.95
2016-12-26T02:29:45.318Z,11.87
2016-12-26T02:30:11.437Z,11.91
2016-12-26T02:30:37.562Z,11.95
2016-12-26T02:31:03.675Z,11.91
2016-12-26T02:31:29.789Z,11.99
2016-12-26T02:31:55.895Z,12.03
2016-12-26T02:32:22.020Z,11.95
2016-12-26T02:32:48.139Z,12.09
2016-12-26T02:33:14.245Z,12.13
2016-12-26T02:33:40.364Z,12.04
2016-12-26T02:34:06.480Z,12.09
2016-12-26T02:34:32.583Z,12.12
2016-12-26T02:34:58.705Z,12.07
2016-12-26T02:35:24.829Z,12.1
2016-12-26T02:35:50.935Z,12.13
2016-12-26T02:36:17.042Z,12.13
2016-12-26T02:36:43.160Z,12.1
2016-12-26T02:37:09.275Z,12.1
2016-12-26T02:37:35.396Z,12.03
2016-12-26T02:38:01.502Z,12.17
2016-12-26T02:38:27.619Z,12.12
2016-12-26T02:38:53.745Z,12.09
2016-12-26T02:39:19.853Z,12.15
2016-12-26T02:39:45.997Z,12.12
2016-12-26T02:40:12.120Z,12.06
2016-12-26T02:40:38.258Z,12.07
2016-12-26T02:41:04.364Z,12.1
2016-12-26T02:41:30.496Z,12.24
2016-12-26T02:41:56.611Z,12.12
2016-12-26T02:42:22.731Z,12.07
2016-12-26T02:42:48.835Z,11.99
2016-12-26T02:43:14.952Z,11.94
2016-12-26T02:43:41.082Z,11.94
2016-12-26T02:44:07.192Z,12.02
2016-12-26T02:44:33.293Z,11.94
2016-12-26T02:44:59.423Z,12.12
2016-12-26T02:45:25.537Z,12.06
2016-12-26T02:45:51.645Z,12.04
2016-12-26T02:46:17.770Z,12.02
2016-12-26T02:46:43.888Z,12
2016-12-26T02:47:09.990Z,11.99
2016-12-26T02:47:36.112Z,12
2016-12-26T02:48:02.218Z,11.99
2016-12-26T02:48:28.345Z,12.07
2016-12-26T02:48:54.459Z,11.91
2016-12-26T02:49:20.558Z,11.99
2016-12-26T02:49:46.687Z,11.88
2016-12-26T02:50:12.810Z,11.91
2016-12-26T02:50:38.922Z,11.9
2016-12-26T02:51:05.038Z,11.88
2016-12-26T02:51:31.158Z,11.9
2016-12-26T02:51:57.263Z,12
2016-12-26T02:52:23.381Z,11.95
2016-12-26T02:52:49.511Z,11.97
2016-12-26T02:53:15.615Z,11.91
2016-12-26T02:53:41.731Z,12
2016-12-26T02:54:07.848Z,12.02
2016-12-26T02:54:33.960Z,12
2016-12-26T02:55:00.068Z,12
2016-12-26T02:55:26.195Z,11.95
2016-12-26T02:55:52.306Z,12.02
2016-12-26T02:56:18.417Z,11.99
2016-12-26T02:56:44.540Z,11.97
2016-12-26T02:57:10.653Z,11.88
2016-12-26T02:57:36.766Z,11.97
2016-12-26T02:58:02.883Z,11.91
2016-12-26T02:58:29.007Z,11.97
2016-12-26T02:58:55.112Z,12
2016-12-26T02:59:21.229Z,11.95
2016-12-26T02:59:47.330Z,11.91
2016-12-26T03:00:13.447Z,11.91
2016-12-26T03:00:39.563Z,11.95
2016-12-26T03:01:05.672Z,11.94
2016-12-26T03:01:31.794Z,11.99
2016-12-26T03:01:57.913Z,11.97
2016-12-26T03:02:24.022Z,12
2016-12-26T03:02:50.142Z,12.1
2016-12-26T03:03:16.261Z,12.1
2016-12-26T03:03:42.366Z,11.9
2016-12-26T03:04:08.479Z,11.99
2016-12-26T03:04:34.594Z,11.88
2016-12-26T03:05:00.713Z,11.94
2016-12-26T03:05:26.832Z,11.94
2016-12-26T03:05:52.939Z,11.94
2016-12-26T03:06:19.057Z,11.95
2016-12-26T03:06:45.175Z,11.91
2016-12-26T03:07:11.278Z,11.97
2016-12-26T03:07:37.399Z,11.91
2016-12-26T03:08:03.514Z,11.97
2016-12-26T03:08:29.625Z,12
2016-12-26T03:08:55.732Z,11.94
2016-12-26T03:09:21.862Z,11.91
2016-12-26T03:09:47.974Z,11.88
2016-12-26T03:10:14.094Z,11.95
2016-12-26T03:10:40.204Z,11.87
2016-12-26T03:11:06.320Z,11.87
2016-12-26T03:11:32.439Z,11.87
2016-12-26T03:11:58.548Z,11.87
2016-12-26T03:12:24.653Z,11.84
2016-12-26T03:12:50.776Z,11.88
2016-12-26T03:13:16.892Z,11.83
2016-12-26T03:13:43.005Z,11.73
2016-12-26T03:14:09.126Z,11.83
2016-12-26T03:14:35.240Z,11.77
2016-12-26T03:15:01.341Z,11.78
2016-12-26T03:15:27.465Z,11.77
2016-12-26T03:15:53.565Z,11.83
2016-12-26T03:16:19.696Z,11.8
2016-12-26T03:16:45.809Z,11.84
2016-12-26T03:17:11.914Z,11.81
2016-12-26T03:17:38.039Z,11.83
2016-12-26T03:18:04.152Z,11.86
2016-12-26T03:18:30.263Z,11.84
2016-12-26T03:18:56.379Z,11.9
2016-12-26T03:19:22.502Z,11.86
2016-12-26T03:19:48.607Z,11.87
2016-12-26T03:20:14.725Z,11.9
2016-12-26T03:20:40.846Z,11.95
2016-12-26T03:21:06.955Z,11.88
2016-12-26T03:21:33.103Z,11.91
2016-12-26T03:21:59.206Z,11.9
2016-12-26T03:22:25.324Z,11.99
2016-12-26T03:22:51.444Z,11.91
2016-12-26T03:23:17.549Z,11.9
2016-12-26T03:23:43.670Z,11.8
2016-12-26T03:24:09.790Z,11.86
2016-12-26T03:24:35.895Z,11.94
2016-12-26T03:25:02.001Z,11.9
2016-12-26T03:25:28.127Z,11.94
2016-12-26T03:25:54.231Z,11.9
2016-12-26T03:26:20.338Z,11.91
2016-12-26T03:26:46.454Z,12
2016-12-26T03:27:12.571Z,11.94
2016-12-26T03:27:38.698Z,11.97
2016-12-26T03:28:04.798Z,11.91
2016-12-26T03:28:30.914Z,11.91
2016-12-26T03:28:57.032Z,11.88
2016-12-26T03:29:23.145Z,11.94
2016-12-26T03:29:49.255Z,11.97
2016-12-26T03:30:15.389Z,11.83
2016-12-26T03:30:41.503Z,11.8
2016-12-26T03:31:07.614Z,11.87
2016-12-26T03:31:33.735Z,11.9
2016-12-26T03:31:59.853Z,11.86
2016-12-26T03:32:25.973Z,11.88
2016-12-26T03:32:52.080Z,11.91
2016-12-26T03:33:18.181Z,11.94
2016-12-26T03:33:44.310Z,11.94
2016-12-26T03:34:10.421Z,12
2016-12-26T03:34:36.529Z,11.91
2016-12-26T03:35:02.650Z,11.97
2016-12-26T03:35:28.763Z,11.9
2016-12-26T03:35:54.868Z,12
2016-12-26T03:36:20.987Z,11.95
2016-12-26T03:36:47.111Z,11.88
2016-12-26T03:37:13.211Z,12
2016-12-26T03:37:39.327Z,11.97
2016-12-26T03:38:05.452Z,12
2016-12-26T03:38:31.555Z,12.02
2016-12-26T03:38:57.667Z,12
2016-12-26T03:39:23.790Z,11.95
2016-12-26T03:39:49.899Z,12.02
2016-12-26T03:40:16.012Z,11.94
2016-12-26T03:40:42.136Z,11.88
2016-12-26T03:41:08.246Z,11.94
2016-12-26T03:41:34.349Z,11.95
2016-12-26T03:42:00.471Z,11.91
2016-12-26T03:42:26.588Z,11.94
2016-12-26T03:42:52.695Z,11.97
2016-12-26T03:43:18.813Z,12.02
2016-12-26T03:43:44.915Z,11.95
2016-12-26T03:44:11.044Z,12.04
2016-12-26T03:44:37.160Z,12
2016-12-26T03:45:03.872Z,11.94
2016-12-26T03:45:29.992Z,12
2016-12-26T03:45:56.102Z,11.95
2016-12-26T03:46:22.214Z,11.97
2016-12-26T03:46:48.336Z,12.04
2016-12-26T03:47:14.461Z,11.94
2016-12-26T03:47:40.563Z,11.94
2016-12-26T03:48:06.678Z,11.88
2016-12-26T03:48:32.801Z,11.91
2016-12-26T03:48:58.912Z,12.02
2016-12-26T03:49:25.034Z,12.02
2016-12-26T03:49:51.159Z,12.03
2016-12-26T03:50:17.283Z,11.94
2016-12-26T03:50:43.401Z,11.84
2016-12-26T03:51:09.511Z,11.81
2016-12-26T03:51:35.625Z,11.84
2016-12-26T03:52:01.749Z,11.83
2016-12-26T03:52:27.852Z,11.94
2016-12-26T03:52:53.965Z,11.9
2016-12-26T03:53:20.091Z,11.78
2016-12-26T03:53:46.208Z,11.78
2016-12-26T03:54:12.314Z,11.86
2016-12-26T03:54:38.434Z,11.81
2016-12-26T03:55:04.552Z,11.81
2016-12-26T03:55:30.676Z,11.84
2016-12-26T03:55:56.781Z,11.81
2016-12-26T03:56:22.896Z,11.86
2016-12-26T03:56:49.015Z,11.81
2016-12-26T03:57:15.126Z,11.86
2016-12-26T03:57:41.272Z,11.91
2016-12-26T03:58:07.404Z,11.88
2016-12-26T03:58:33.562Z,11.94
2016-12-26T03:58:59.671Z,11.95
2016-12-26T03:59:25.792Z,12
2016-12-26T03:59:51.905Z,11.94
2016-12-26T04:00:18.020Z,11.9
2016-12-26T04:00:44.130Z,11.94
2016-12-26T04:01:10.233Z,11.95
2016-12-26T04:01:36.359Z,11.91
2016-12-26T04:02:02.470Z,11.94
2016-12-26T04:02:28.573Z,11.81
2016-12-26T04:02:54.698Z,11.88
2016-12-26T04:03:20.812Z,11.84
2016-12-26T04:03:46.919Z,11.83
2016-12-26T04:04:13.039Z,11.87
2016-12-26T04:04:39.166Z,11.9
2016-12-26T04:05:05.263Z,11.94
2016-12-26T04:05:31.380Z,11.9
2016-12-26T04:05:57.496Z,11.95
2016-12-26T04:06:23.612Z,11.97
2016-12-26T04:06:49.723Z,11.95
2016-12-26T04:07:15.831Z,12
2016-12-26T04:07:41.951Z,11.97
2016-12-26T04:08:08.074Z,11.97
2016-12-26T04:08:34.173Z,12
2016-12-26T04:09:00.294Z,11.99
2016-12-26T04:09:26.411Z,11.95
2016-12-26T04:09:52.519Z,11.94
2016-12-26T04:10:18.629Z,11.86
2016-12-26T04:10:44.756Z,11.87
2016-12-26T04:11:10.864Z,11.83
2016-12-26T04:11:36.989Z,11.81
2016-12-26T04:12:03.092Z,11.81
2016-12-26T04:12:29.211Z,11.81
2016-12-26T04:12:55.336Z,11.78
2016-12-26T04:13:21.442Z,11.8
2016-12-26T04:13:47.560Z,11.8
2016-12-26T04:14:13.680Z,11.86
2016-12-26T04:14:39.795Z,11.8
2016-12-26T04:15:05.905Z,11.73
2016-12-26T04:15:32.031Z,11.86
2016-12-26T04:15:58.174Z,11.86
2016-12-26T04:16:24.277Z,11.88
2016-12-26T04:16:50.404Z,11.86
2016-12-26T04:17:16.511Z,11.81
2016-12-26T04:17:42.631Z,11.83
2016-12-26T04:18:08.740Z,11.87
2016-12-26T04:18:34.848Z,11.83
2016-12-26T04:19:00.979Z,11.84
2016-12-26T04:19:27.092Z,11.81
2016-12-26T04:19:53.200Z,11.77
2016-12-26T04:20:19.320Z,11.8
2016-12-26T04:20:45.435Z,11.8
2016-12-26T04:21:11.538Z,11.87
2016-12-26T04:21:37.661Z,11.87
2016-12-26T04:22:03.788Z,11.87
2016-12-26T04:22:29.890Z,11.88
2016-12-26T04:22:56.010Z,11.81
2016-12-26T04:23:22.127Z,11.86
2016-12-26T04:23:48.232Z,11.83
2016-12-26T04:24:14.374Z,11.86
2016-12-26T04:24:40.525Z,11.88
2016-12-26T04:25:06.628Z,11.91
2016-12-26T04:25:32.737Z,11.78
2016-12-26T04:25:58.857Z,11.73
2016-12-26T04:26:24.967Z,11.83
2016-12-26T04:26:51.076Z,11.73
2016-12-26T04:27:17.200Z,11.77
2016-12-26T04:27:43.317Z,11.73
2016-12-26T04:28:09.435Z,11.78
2016-12-26T04:28:35.542Z,11.77
2016-12-26T04:29:01.651Z,11.8
2016-12-26T04:29:27.774Z,11.87
2016-12-26T04:29:53.888Z,11.8
2016-12-26T04:30:19.998Z,11.81
2016-12-26T04:30:46.123Z,11.8
2016-12-26T04:31:12.236Z,11.78
2016-12-26T04:31:38.348Z,11.84
2016-12-26T04:32:04.470Z,11.81
2016-12-26T04:32:30.597Z,11.81
2016-12-26T04:32:56.699Z,11.88
2016-12-26T04:33:22.811Z,11.87
2016-12-26T04:33:48.929Z,11.87
2016-12-26T04:34:15.054Z,11.81
2016-12-26T04:34:41.166Z,11.84
2016-12-26T04:35:07.267Z,11.86
2016-12-26T04:35:33.387Z,11.81
2016-12-26T04:35:59.509Z,11.81
2016-12-26T04:36:25.617Z,11.86
2016-12-26T04:36:51.731Z,11.77
2016-12-26T04:37:17.847Z,11.78
2016-12-26T04:37:43.959Z,11.72
2016-12-26T04:38:10.071Z,11.66
2016-12-26T04:38:36.197Z,11.68
2016-12-26T04:39:02.303Z,11.68
2016-12-26T04:39:28.427Z,11.69
2016-12-26T04:39:54.530Z,11.75
2016-12-26T04:40:20.649Z,11.78
2016-12-26T04:40:46.768Z,11.83
2016-12-26T04:41:12.877Z,11.73
2016-12-26T04:41:38.991Z,11.77
2016-12-26T04:42:05.112Z,11.72
2016-12-26T04:42:31.222Z,11.69
2016-12-26T04:42:57.360Z,11.81
2016-12-26T04:43:23.486Z,11.69
2016-12-26T04:43:49.598Z,11.72
2016-12-26T04:44:15.703Z,11.7
2016-12-26T04:44:41.826Z,11.63
2016-12-26T04:45:07.943Z,11.72
2016-12-26T04:45:34.059Z,11.75
2016-12-26T04:46:00.168Z,11.8
2016-12-26T04:46:26.275Z,11.73
2016-12-26T04:46:52.402Z,11.81
2016-12-26T04:47:18.522Z,11.78
2016-12-26T04:47:44.628Z,11.77
2016-12-26T04:48:10.773Z,11.75
2016-12-26T04:48:36.886Z,11.8
2016-12-26T04:49:02.992Z,11.7
2016-12-26T04:49:29.109Z,11.7
2016-12-26T04:49:55.229Z,11.73
2016-12-26T04:50:21.338Z,11.8
2016-12-26T04:50:47.451Z,11.73
2016-12-26T04:51:13.560Z,11.75
2016-12-26T04:51:39.681Z,11.81
2016-12-26T04:52:05.799Z,11.78
2016-12-26T04:52:31.903Z,11.78
2016-12-26T04:52:58.019Z,11.77
2016-12-26T04:53:24.139Z,11.77
2016-12-26T04:53:50.247Z,11.75
2016-12-26T04:54:16.364Z,11.8
2016-12-26T04:54:42.479Z,11.83
2016-12-26T04:55:08.583Z,11.78
2016-12-26T04:55:34.694Z,11.75
2016-12-26T04:56:00.803Z,11.75
2016-12-26T04:56:26.923Z,11.72
2016-12-26T04:56:53.040Z,11.72
2016-12-26T04:57:19.146Z,11.72
2016-12-26T04:57:45.263Z,11.63
2016-12-26T04:58:11.388Z,11.65
2016-12-26T04:58:37.491Z,11.75
2016-12-26T04:59:03.600Z,11.72
2016-12-26T04:59:29.720Z,11.66
2016-12-26T04:59:55.825Z,11.65
2016-12-26T05:00:21.931Z,11.55
2016-12-26T05:00:48.061Z,11.65
2016-12-26T05:01:14.171Z,11.65
2016-12-26T05:01:40.286Z,11.7
2016-12-26T05:02:06.398Z,11.73
2016-12-26T05:02:32.508Z,11.7
2016-12-26T05:02:58.632Z,11.68
2016-12-26T05:03:24.738Z,11.75
2016-12-26T05:03:50.841Z,11.72
2016-12-26T05:04:16.975Z,11.73
2016-12-26T05:04:43.089Z,11.72
2016-12-26T05:05:09.201Z,11.77
2016-12-26T05:05:35.319Z,11.69
2016-12-26T05:06:01.434Z,11.77
2016-12-26T05:06:27.542Z,11.7
2016-12-26T05:06:53.661Z,11.7
2016-12-26T05:07:19.777Z,11.68
2016-12-26T05:07:45.881Z,11.78
2016-12-26T05:08:12.004Z,11.66
2016-12-26T05:08:38.124Z,11.72
2016-12-26T05:09:04.228Z,11.77
2016-12-26T05:09:30.338Z,11.7
2016-12-26T05:09:56.466Z,11.69
2016-12-26T05:10:22.573Z,11.75
2016-12-26T05:10:48.681Z,11.75
2016-12-26T05:11:14.805Z,11.65
2016-12-26T05:11:40.922Z,11.59
2016-12-26T05:12:07.027Z,11.52
2016-12-26T05:12:33.188Z,11.6
2016-12-26T05:12:59.300Z,11.6
2016-12-26T05:13:25.420Z,11.59
2016-12-26T05:13:51.529Z,11.65
2016-12-26T05:14:17.634Z,11.62
2016-12-26T05:14:43.766Z,11.7
2016-12-26T05:15:09.879Z,11.69
2016-12-26T05:15:35.985Z,11.65
2016-12-26T05:16:02.108Z,11.65
2016-12-26T05:16:28.225Z,11.65
2016-12-26T05:16:54.331Z,11.65
2016-12-26T05:17:20.448Z,11.6
2016-12-26T05:17:46.569Z,11.7
2016-12-26T05:18:12.676Z,11.63
2016-12-26T05:18:38.789Z,11.69
2016-12-26T05:19:04.896Z,11.62
2016-12-26T05:19:31.018Z,11.6
2016-12-26T05:19:57.136Z,11.69
2016-12-26T05:20:23.237Z,11.68
2016-12-26T05:20:49.358Z,11.6
2016-12-26T05:21:15.487Z,11.63
2016-12-26T05:21:41.590Z,11.72
2016-12-26T05:22:07.712Z,11.7
2016-12-26T05:22:33.836Z,11.7
2016-12-26T05:22:59.943Z,11.7
2016-12-26T05:23:26.052Z,11.69
2016-12-26T05:23:52.169Z,11.72
2016-12-26T05:24:18.286Z,11.65
2016-12-26T05:24:44.407Z,11.65
2016-12-26T05:25:10.511Z,11.65
2016-12-26T05:25:36.630Z,11.7
2016-12-26T05:26:02.756Z,11.63
2016-12-26T05:26:28.855Z,11.59
2016-12-26T05:26:54.972Z,11.62
2016-12-26T05:27:21.098Z,11.62
2016-12-26T05:27:47.211Z,11.65
2016-12-26T05:28:13.313Z,11.69
2016-12-26T05:28:39.437Z,11.66
2016-12-26T05:29:05.546Z,11.72
2016-12-26T05:29:31.665Z,11.75
2016-12-26T05:29:57.772Z,11.73
2016-12-26T05:30:23.880Z,11.7
2016-12-26T05:30:50.005Z,11.65
2016-12-26T05:31:16.116Z,11.75
2016-12-26T05:31:42.221Z,11.72
2016-12-26T05:32:08.348Z,11.75
2016-12-26T05:32:34.465Z,11.63
2016-12-26T05:33:00.565Z,11.77
2016-12-26T05:33:26.689Z,11.68
2016-12-26T05:33:52.800Z,11.68
2016-12-26T05:34:18.909Z,11.68
2016-12-26T05:34:45.029Z,11.7
2016-12-26T05:35:11.136Z,11.72
2016-12-26T05:35:37.266Z,11.75
2016-12-26T05:36:03.376Z,11.78
2016-12-26T05:36:29.479Z,11.78
2016-12-26T05:36:55.602Z,11.86
2016-12-26T05:37:21.715Z,11.83
2016-12-26T05:37:47.822Z,11.81
2016-12-26T05:38:13.939Z,11.86
2016-12-26T05:38:40.066Z,11.87
2016-12-26T05:39:06.170Z,11.8